Latest Weather Observations for Bega

IDN60801

Issued at 11:02 am EDT Saturday 3 December 2016 (issued every 30 minutes, with the page automatically refreshed every 10 minutes)

About weather observations | Map of weather stations | Latest weather observations for NSW | Other Formats
Station Details ID: 069139 Name: BEGA AWS Lat: -36.67 Lon: 149.82 Height: 41.0 m
Data from the previous 72 hours. | See also: Recent months at Bega
Date/Time
EDT
Temp
°C
App
Temp
°C
Dew
Point
°C
Rel
Hum
%
Delta-T
°C
Wind Press
QNH
hPa
Press
MSL
hPa
Rain since
9am
mm
Dir  Spd
km/h
Gust
km/h
Spd
kts
Gust
kts
03/10:30am 17.4 17.0 12.9 75 2.5 ESE 7 11 4 6 1017.0 1016.8 0.0
03/10:00am 17.1 16.8 12.6 75 2.5 E 6 7 3 4 1017.0 1016.8 0.0
03/09:30am 16.9 17.0 12.8 77 2.3 ENE 4 7 2 4 1017.0 1016.8 0.0
03/09:00am 16.7 17.5 12.7 77 2.2 CALM 0 0 0 0 1017.1 1016.9 0.0
03/08:30am 16.2 16.7 12.7 80 1.9 SE 2 6 1 3 1017.1 1016.9 0.0
03/08:00am 16.1 17.0 12.8 81 1.8 CALM 0 0 0 0 1017.0 1016.8 0.0
03/07:30am 15.9 15.6 12.8 82 1.7 SW 6 7 3 4 1016.7 1016.5 0.0
03/07:00am 15.6 15.3 12.7 83 1.6 WSW 6 7 3 4 1016.4 1016.2 0.0
03/06:30am 15.3 14.7 12.4 83 1.6 WSW 7 7 4 4 1016.0 1015.8 0.0
03/06:00am 15.3 14.8 12.2 82 1.7 WSW 6 7 3 4 1015.7 1015.5 0.0
03/05:30am 15.2 14.7 12.2 82 1.6 SW 6 7 3 4 1015.2 1015.1 0.0
03/05:00am 15.3 15.2 12.1 81 1.7 SW 4 7 2 4 1015.0 1014.9 0.0
03/04:30am 15.4 14.9 12.0 80 1.8 SW 6 6 3 3 1015.0 1014.9 0.0
03/04:00am 15.4 14.9 12.0 80 1.8 W 6 7 3 4 1015.1 1015.0 0.0
03/03:30am 15.4 14.7 12.0 80 1.8 W 7 9 4 5 1015.1 1015.0 0.0
03/03:00am 15.4 14.7 12.0 80 1.8 SW 7 9 4 5 1015.2 1015.1 0.0
03/02:30am 15.6 15.0 11.8 78 2.1 SSW 6 7 3 4 1015.5 1015.4 0.0
03/02:00am 15.7 14.9 11.7 77 2.2 SSE 7 11 4 6 1015.9 1015.7 0.0
03/01:30am 15.9 14.0 11.7 76 2.3 SSE 13 17 7 9 1016.0 1015.8 0.0
03/01:00am 16.1 14.1 11.5 74 2.5 E 13 20 7 11 1016.1 1015.9 0.0
03/12:30am 16.7 15.1 11.4 71 2.9 E 11 15 6 8 1016.0 1015.8 0.0
03/12:00am 16.9 14.6 11.6 71 2.9 ESE 15 20 8 11 1015.9 1015.7 0.0
 
Date/Time
EDT
Temp
°C
App
Temp
°C
Dew
Point
°C
Rel
Hum
%
Delta-T
°C
Wind Press
QNH
hPa
Press
MSL
hPa
Rain since
9am
mm
Dir  Spd
km/h
Gust
km/h
Spd
kts
Gust
kts
02/11:30pm 17.3 15.5 12.0 71 2.9 ESE 13 17 7 9 1015.8 1015.6 0.0
02/11:00pm 17.6 15.5 12.5 72 2.8 ENE 15 20 8 11 1015.7 1015.5 0.0
02/10:30pm 17.5 16.0 13.0 75 2.5 NE 13 15 7 8 1015.5 1015.4 0.0
02/10:00pm 17.6 16.6 13.3 76 2.4 NE 11 15 6 8 1015.3 1015.2 0.0
02/09:30pm 17.7 15.9 13.4 76 2.4 NE 15 19 8 10 1015.0 1014.9 0.0
02/09:00pm 17.8 15.7 13.5 76 2.4 NE 17 22 9 12 1014.5 1014.4 0.0
02/08:30pm 17.8 16.5 13.7 77 2.3 NE 13 20 7 11 1014.3 1014.2 0.0
02/08:00pm 18.1 16.1 13.8 76 2.5 NNE 17 20 9 11 1013.9 1013.8 0.0
02/07:30pm 18.5 17.3 14.0 75 2.6 NE 13 20 7 11 1013.2 1013.1 0.0
02/07:00pm 18.8 17.2 13.9 73 2.8 E 15 24 8 13 1012.7 1012.6 0.0
02/06:30pm 19.1 17.1 13.9 72 3.0 ENE 17 24 9 13 1012.3 1012.2 0.0
02/06:00pm 19.4 16.9 14.2 72 3.0 E 20 30 11 16 1011.7 1011.6 0.0
02/05:30pm 19.7 17.3 14.3 71 3.1 ESE 20 30 11 16 1011.3 1011.2 0.0
02/05:00pm 20.5 17.7 14.4 68 3.6 E 22 30 12 16 1010.6 1010.5 0.0
02/04:30pm 21.2 18.7 15.1 68 3.6 ESE 22 32 12 17 1010.5 1010.4 0.0
02/04:00pm 22.1 20.3 15.9 68 3.7 ESE 20 30 11 16 1010.0 1009.9 0.0
02/03:30pm 21.9 18.8 15.5 67 3.8 SE 26 33 14 18 1010.0 1009.9 0.0
02/03:00pm 22.6 20.4 15.9 66 4.0 ESE 22 32 12 17 1009.7 1009.6 0.0
02/02:30pm 22.5 20.6 15.8 66 4.0 SE 20 32 11 17 1009.5 1009.4 0.0
02/02:00pm 22.7 20.3 16.5 68 3.8 ESE 24 35 13 19 1009.0 1008.9 0.0
02/01:30pm 23.5 21.5 17.3 68 3.8 ESE 24 35 13 19 1008.7 1008.6 0.0
02/01:00pm 22.6 20.8 16.9 70 3.5 ESE 22 37 12 20 1008.3 1008.2 0.0
02/12:30pm 23.6 20.1 18.0 71 3.5 ESE 33 50 18 27 1007.5 1007.4 0.0
02/12:00pm 25.0 20.9 15.9 57 5.6 ESE 32 43 17 23 1007.1 1007.0 0.0
02/11:30am 27.7 25.9 16.0 49 7.2 SE 20 26 11 14 1007.0 1006.9 0.0
02/11:00am 27.5 26.6 12.7 40 8.7 ESE 9 15 5 8 1007.0 1006.9 0.0
02/10:30am 25.6 25.7 13.8 48 7.0 SSE 6 9 3 5 1007.1 1007.0 0.0
02/10:00am 23.1 24.6 17.6 71 3.4 ESE 6 9 3 5 1007.2 1007.1 0.0
02/09:30am 20.6 21.7 17.2 81 2.1 ENE 7 11 4 6 1007.4 1007.3 0.0
02/09:00am 16.6 17.6 16.4 99 0.1 NE 6 9 3 5 1007.5 1007.4 0.2
02/08:30am 14.9 15.3 14.7 99 0.1 N 6 7 3 4 1007.6 1007.5 0.2
02/08:00am 13.7 13.7 13.5 99 0.1 S 6 9 3 5 1007.6 1007.5 0.2
02/07:30am 13.4 14.4 13.2 99 0.1 CALM 0 0 0 0 1007.5 1007.4 0.2
02/07:00am 12.6 13.4 12.4 99 0.1 CALM 0 0 0 0 1007.3 1007.2 0.2
02/06:30am 12.5 13.2 12.3 99 0.1 CALM 0 0 0 0 1007.1 1007.0 0.2
02/06:00am 12.7 13.5 12.5 99 0.1 CALM 0 0 0 0 1007.1 1007.0 0.2
02/05:30am 12.9 13.7 12.7 99 0.1 CALM 0 0 0 0 1006.9 1006.8 0.2
02/05:00am 12.9 12.6 12.7 99 0.1 SW 6 7 3 4 1006.6 1006.5 0.2
02/04:30am 12.9 12.4 12.7 99 0.1 S 7 9 4 5 1006.5 1006.4 0.2
02/04:00am 13.2 14.1 13.0 99 0.1 CALM 0 0 0 0 1006.5 1006.4 0.2
02/03:30am 12.8 13.6 12.6 99 0.1 CALM 0 0 0 0 1006.4 1006.3 0.2
02/03:00am 12.6 13.4 12.4 99 0.1 CALM 0 0 0 0 1006.5 1006.4 0.2
02/02:30am 13.3 13.1 13.1 99 0.1 WNW 6 7 3 4 1006.4 1006.3 0.2
02/02:00am 13.4 14.4 13.1 98 0.2 CALM 0 0 0 0 1006.7 1006.6 0.2
02/01:30am 13.2 14.0 12.7 97 0.3 CALM 0 0 0 0 1006.9 1006.8 0.2
02/01:00am 13.8 14.8 13.2 96 0.3 CALM 0 0 0 0 1007.1 1007.0 0.2
02/12:30am 14.7 16.0 14.2 97 0.3 CALM 0 0 0 0 1007.1 1007.0 0.2
02/12:00am 15.0 16.3 14.2 95 0.5 CALM 0 0 0 0 1007.2 1007.1 0.2
 
Date/Time
EDT
Temp
°C
App
Temp
°C
Dew
Point
°C
Rel
Hum
%
Delta-T
°C
Wind Press
QNH
hPa
Press
MSL
hPa
Rain since
9am
mm
Dir  Spd
km/h
Gust
km/h
Spd
kts
Gust
kts
01/11:30pm 15.2 16.4 13.9 92 0.7 CALM 0 0 0 0 1007.4 1007.3 0.2
01/11:00pm 16.2 16.7 14.9 92 0.8 NNW 6 7 3 4 1007.4 1007.3 0.2
01/10:30pm 16.6 17.2 15.3 92 0.8 NNW 6 9 3 5 1007.7 1007.6 0.2
01/10:00pm 17.3 19.0 15.3 88 1.2 CALM 0 0 0 0 1007.6 1007.5 0.2
01/09:30pm 17.5 18.8 15.1 86 1.4 SSE 2 6 1 3 1007.5 1007.4 0.2
01/09:00pm 18.0 18.6 15.4 85 1.5 SSE 6 11 3 6 1007.4 1007.3 0.2
01/08:30pm 18.4 18.9 15.1 81 1.9 SSE 6 9 3 5 1007.3 1007.2 0.2
01/08:00pm 19.3 19.5 14.8 75 2.6 E 7 13 4 7 1007.0 1006.9 0.2
01/07:30pm 20.1 20.1 15.1 73 2.9 SE 9 13 5 7 1007.0 1006.9 0.2
01/07:00pm 20.8 20.9 15.4 71 3.2 SE 9 15 5 8 1007.0 1006.9 0.2
01/06:30pm 21.6 22.0 15.4 68 3.7 ESE 7 9 4 5 1006.8 1006.7 0.2
01/06:00pm 22.0 22.0 15.1 65 4.1 E 9 13 5 7 1006.6 1006.5 0.2
01/05:30pm 22.3 21.3 15.6 66 4.0 E 15 19 8 10 1006.5 1006.4 0.2
01/05:00pm 22.8 21.5 15.9 65 4.2 ESE 17 22 9 12 1006.5 1006.4 0.2
01/04:30pm 23.5 22.8 16.5 65 4.3 SE 15 20 8 11 1006.4 1006.3 0.2
01/04:00pm 23.0 22.3 16.3 66 4.1 ESE 15 20 8 11 1006.5 1006.4 0.2
01/03:30pm 21.7 20.3 15.5 68 3.7 E 17 24 9 13 1006.6 1006.5 0.2
01/03:00pm 22.0 20.0 16.5 71 3.4 SE 22 28 12 15 1006.6 1006.5 0.2
01/02:30pm 21.4 19.8 16.6 74 2.9 SE 20 28 11 15 1006.6 1006.5 0.2
01/02:00pm 22.2 20.5 17.3 74 3.0 ESE 22 30 12 16 1006.4 1006.3 0.2
01/01:30pm 21.8 20.6 17.4 76 2.7 SE 20 30 11 16 1006.1 1006.0 0.2
01/01:00pm 21.2 19.6 16.4 74 2.9 ESE 20 28 11 15 1006.1 1006.0 0.2
01/12:30pm 22.2 20.4 16.9 72 3.2 E 22 30 12 16 1005.8 1005.7 0.2
01/12:00pm 24.0 22.1 17.7 68 3.9 ESE 24 32 13 17 1005.7 1005.6 0.2
01/11:30am 24.3 23.0 17.3 65 4.3 ESE 20 28 11 15 1005.7 1005.6 0.2
01/11:00am 24.5 24.1 18.0 67 4.1 ESE 17 26 9 14 1005.8 1005.7 0.2
01/10:30am 24.2 24.7 18.4 70 3.7 ESE 13 19 7 10 1006.2 1006.1 0.2
01/10:00am 23.4 23.4 18.1 72 3.3 ESE 15 20 8 11 1006.4 1006.3 0.2
01/09:30am 22.8 23.4 18.6 77 2.6 E 13 19 7 10 1006.6 1006.5 0.2
01/09:00am 22.2 23.6 18.6 80 2.3 SE 9 13 5 7 1006.8 1006.7 1.2
01/08:30am 21.2 23.6 18.8 86 1.5 SE 4 9 2 5 1006.9 1006.8 1.2
01/08:00am 20.2 21.7 18.1 88 1.3 E 7 9 4 5 1007.0 1006.9 1.2
01/07:30am 20.0 22.6 18.3 90 1.1 ENE 2 7 1 4 1006.9 1006.8 1.2
01/07:00am 19.1 21.5 18.9 99 0.1 E 4 7 2 4 1006.7 1006.6 1.2
01/06:30am 17.9 20.5 17.6 98 0.2 CALM 0 0 0 0 1006.4 1006.3 1.2
01/06:00am 17.6 19.7 17.3 98 0.2 NW 2 6 1 3 1006.4 1006.3 1.2
01/05:30am 17.9 20.5 17.6 98 0.2 CALM 0 4 0 2 1006.4 1006.3 1.2
01/05:00am 17.9 20.5 17.6 98 0.2 CALM 0 0 0 0 1006.1 1006.0 1.2
01/04:30am 17.9 20.5 17.6 98 0.2 CALM 0 0 0 0 1006.1 1006.0 1.2
01/04:00am 18.0 20.6 17.5 97 0.3 CALM 0 7 0 4 1005.9 1005.8 1.2
01/03:30am 18.1 20.7 17.6 97 0.3 CALM 0 0 0 0 1006.0 1005.9 1.2
01/03:00am 18.2 19.3 17.9 98 0.2 SSW 9 11 5 6 1006.1 1006.0 1.2
01/02:30am 18.3 21.1 18.0 98 0.2 CALM 0 0 0 0 1006.4 1006.3 1.2
01/02:00am 18.3 19.8 18.0 98 0.2 SW 7 9 4 5 1006.8 1006.7 1.2
01/01:30am 18.3 21.0 17.7 96 0.4 CALM 0 0 0 0 1007.2 1007.1 1.2
01/01:00am 18.4 21.1 17.8 96 0.4 CALM 0 0 0 0 1007.7 1007.6 1.2
01/12:30am 18.4 21.0 17.6 95 0.5 CALM 0 0 0 0 1007.8 1007.7 1.2
01/12:00am 18.4 20.0 17.8 96 0.4 WSW 6 7 3 4 1008.0 1007.9 1.2
 
Date/Time
EDT
Temp
°C
App
Temp
°C
Dew
Point
°C
Rel
Hum
%
Delta-T
°C
Wind Press
QNH
hPa
Press
MSL
hPa
Rain since
9am
mm
Dir  Spd
km/h
Gust
km/h
Spd
kts
Gust
kts
30/11:30pm 18.3 21.0 17.7 96 0.4 CALM 0 0 0 0 1008.3 1008.2 1.2
30/11:00pm 18.1 19.9 17.5 96 0.4 SSW 4 7 2 4 1008.5 1008.4 1.2
30/10:30pm 18.2 20.1 17.7 97 0.3 WSW 4 9 2 5 1008.6 1008.5 1.2
30/10:00pm 18.4 19.8 17.9 97 0.3 SW 7 7 4 4 1008.8 1008.7 1.2
30/09:30pm 18.2 19.7 17.6 96 0.4 SE 6 9 3 5 1008.7 1008.6 1.2
30/09:00pm 18.2 18.8 17.6 96 0.4 N 11 17 6 9 1008.3 1008.2 1.2
30/08:30pm 18.7 19.1 17.2 91 0.9 E 11 19 6 10 1008.1 1008.0 1.2
30/08:00pm 19.1 20.1 16.9 87 1.3 N 7 13 4 7 1008.8 1008.7 0.0
30/07:30pm 19.2 19.1 17.0 87 1.3 NE 13 20 7 11 1007.9 1007.8 0.0
30/07:00pm 19.7 18.6 16.3 81 2.0 NE 17 20 9 11 1008.0 1007.9 0.0
30/06:30pm 19.8 18.7 16.4 81 2.0 NE 17 24 9 13 1007.6 1007.5 0.0
30/06:00pm 19.9 18.2 16.2 79 2.2 NE 20 28 11 15 1007.5 1007.4 0.0
30/05:30pm 20.2 17.0 16.2 78 2.4 NE 28 37 15 20 1007.1 1007.0 0.0
30/05:00pm 20.7 17.0 15.9 74 2.9 NE 30 44 16 24 1007.0 1006.9 0.0
30/04:30pm 21.3 17.1 15.6 70 3.4 NE 32 44 17 24 1007.3 1007.2 0.0
30/04:06pm 21.0 16.4 15.1 69 3.5 NE 33 52 18 28 1007.3 1007.2 0.0
30/04:00pm 21.8 17.5 15.9 69 3.6 NE 33 44 18 24 1007.3 1007.2 0.0
30/03:30pm 21.2 17.2 16.2 73 3.0 NE 32 44 17 24 1007.8 1007.7 0.0
30/03:00pm 21.9 19.1 16.4 71 3.3 NE 26 39 14 21 1008.2 1008.1 0.0
30/02:30pm 21.2 17.2 15.3 69 3.5 ENE 30 41 16 22 1008.0 1007.9 0.0
30/02:00pm 22.2 18.5 15.1 64 4.2 ENE 28 37 15 20 1008.1 1008.0 0.0
30/01:30pm 23.2 18.9 15.3 61 4.7 ENE 32 43 17 23 1008.1 1008.0 0.0
30/01:00pm 23.7 19.5 16.2 63 4.6 ENE 33 44 18 24 1008.6 1008.5 0.0
30/12:30pm 23.7 20.4 16.0 62 4.7 NE 28 41 15 22 1009.0 1008.9 0.0
30/12:00pm 23.3 20.6 15.6 62 4.6 ENE 24 33 13 18 1009.4 1009.3 0.0
30/11:30am 24.0 22.6 17.0 65 4.3 ENE 20 32 11 17 1009.9 1009.8 0.0

Other Formats:

Comma delimited format used in spreadsheet applications
http://www.bom.gov.au/fwo/IDN60801/IDN60801.95931.axf

JavaScript Object Notation format (JSON) in row-major order
http://www.bom.gov.au/fwo/IDN60801/IDN60801.95931.json